Terminal Aerodrome Forecast
Issued by NWS

Home | Current Version | Previous Version | Text Only | Print | Product List | Glossary On
Versions: 1 2 3 4 5 6 7 8 9 10 11 12 13 14
000
FTUS43 KLSX 182300
TAFUIN
TAF
KUIN 182322Z 1900/1924 16012G18KT P6SM SCT045 BKN200
     FM190200 12006KT P6SM VCTS BKN050CB
     FM190600 12005KT P6SM SCT050 BKN150
     FM191400 02006KT 5SM -RA BR OVC040
     FM192200 25006KT P6SM OVC035=

USA.gov is the U.S. government's official web portal to all federal, state and local government web resources and services.